sensor_id;sensor_type;location;lat;lon;timestamp;temperature;humidity
20610;DHT22;10463;52.378;9.688;2024-02-26T00:00:54;22.10;24.20
20610;DHT22;10463;52.378;9.688;2024-02-26T00:03:39;22.10;24.20
20610;DHT22;10463;52.378;9.688;2024-02-26T00:06:26;22.10;24.20
20610;DHT22;10463;52.378;9.688;2024-02-26T00:09:12;22.10;24.20
20610;DHT22;10463;52.378;9.688;2024-02-26T00:11:57;22.00;24.10
20610;DHT22;10463;52.378;9.688;2024-02-26T00:14:45;22.00;24.10
20610;DHT22;10463;52.378;9.688;2024-02-26T00:17:32;22.00;24.10
20610;DHT22;10463;52.378;9.688;2024-02-26T00:20:16;22.10;24.20
20610;DHT22;10463;52.378;9.688;2024-02-26T00:23:01;22.00;24.10
20610;DHT22;10463;52.378;9.688;2024-02-26T00:25:47;22.00;24.10
20610;DHT22;10463;52.378;9.688;2024-02-26T00:28:32;22.00;24.10
20610;DHT22;10463;52.378;9.688;2024-02-26T00:31:17;22.00;24.10
20610;DHT22;10463;52.378;9.688;2024-02-26T00:34:01;22.00;24.10
20610;DHT22;10463;52.378;9.688;2024-02-26T00:36:46;22.00;24.10
20610;DHT22;10463;52.378;9.688;2024-02-26T00:39:31;22.00;24.10
20610;DHT22;10463;52.378;9.688;2024-02-26T00:42:18;22.00;24.10
20610;DHT22;10463;52.378;9.688;2024-02-26T00:45:03;22.00;24.10
20610;DHT22;10463;52.378;9.688;2024-02-26T00:47:48;22.00;24.10
20610;DHT22;10463;52.378;9.688;2024-02-26T00:50:34;22.00;24.10
20610;DHT22;10463;52.378;9.688;2024-02-26T00:53:19;22.00;24.10
20610;DHT22;10463;52.378;9.688;2024-02-26T00:56:04;22.00;24.10
20610;DHT22;10463;52.378;9.688;2024-02-26T00:58:50;21.90;24.00
20610;DHT22;10463;52.378;9.688;2024-02-26T01:01:35;21.90;24.10
20610;DHT22;10463;52.378;9.688;2024-02-26T01:04:20;21.90;24.10
20610;DHT22;10463;52.378;9.688;2024-02-26T01:07:05;21.90;24.10
20610;DHT22;10463;52.378;9.688;2024-02-26T01:09:50;22.00;24.10
20610;DHT22;10463;52.378;9.688;2024-02-26T01:12:35;21.90;24.00
20610;DHT22;10463;52.378;9.688;2024-02-26T01:15:21;21.90;24.00
20610;DHT22;10463;52.378;9.688;2024-02-26T01:18:08;21.90;24.00
20610;DHT22;10463;52.378;9.688;2024-02-26T01:20:53;21.90;24.10
20610;DHT22;10463;52.378;9.688;2024-02-26T01:23:39;21.90;24.10
20610;DHT22;10463;52.378;9.688;2024-02-26T01:26:23;21.90;24.10
20610;DHT22;10463;52.378;9.688;2024-02-26T01:29:08;21.90;24.00
20610;DHT22;10463;52.378;9.688;2024-02-26T01:31:54;21.90;24.10
20610;DHT22;10463;52.378;9.688;2024-02-26T01:34:39;21.90;24.10
20610;DHT22;10463;52.378;9.688;2024-02-26T01:37:24;21.90;24.10
20610;DHT22;10463;52.378;9.688;2024-02-26T01:40:10;21.90;24.10
20610;DHT22;10463;52.378;9.688;2024-02-26T01:42:55;21.90;24.10
20610;DHT22;10463;52.378;9.688;2024-02-26T01:45:40;21.90;24.10
20610;DHT22;10463;52.378;9.688;2024-02-26T01:48:26;21.90;24.10
20610;DHT22;10463;52.378;9.688;2024-02-26T01:51:12;21.90;24.10
20610;DHT22;10463;52.378;9.688;2024-02-26T01:53:59;21.90;24.10
20610;DHT22;10463;52.378;9.688;2024-02-26T01:56:46;21.90;24.10
20610;DHT22;10463;52.378;9.688;2024-02-26T01:59:31;21.90;24.10
20610;DHT22;10463;52.378;9.688;2024-02-26T02:02:16;21.90;24.10
20610;DHT22;10463;52.378;9.688;2024-02-26T02:05:04;21.90;24.10
20610;DHT22;10463;52.378;9.688;2024-02-26T02:07:49;21.80;24.00
20610;DHT22;10463;52.378;9.688;2024-02-26T02:10:34;21.90;24.10
20610;DHT22;10463;52.378;9.688;2024-02-26T02:13:20;21.90;24.10
20610;DHT22;10463;52.378;9.688;2024-02-26T02:16:05;21.90;24.10
20610;DHT22;10463;52.378;9.688;2024-02-26T02:18:49;21.80;24.00
20610;DHT22;10463;52.378;9.688;2024-02-26T02:21:36;21.90;24.10
20610;DHT22;10463;52.378;9.688;2024-02-26T02:24:20;21.80;24.00
20610;DHT22;10463;52.378;9.688;2024-02-26T02:27:05;21.90;24.10
20610;DHT22;10463;52.378;9.688;2024-02-26T02:29:50;21.80;24.00
20610;DHT22;10463;52.378;9.688;2024-02-26T02:32:37;21.80;24.00
20610;DHT22;10463;52.378;9.688;2024-02-26T02:35:22;21.80;24.00
20610;DHT22;10463;52.378;9.688;2024-02-26T02:38:08;21.80;24.00
20610;DHT22;10463;52.378;9.688;2024-02-26T02:40:53;21.80;24.00
20610;DHT22;10463;52.378;9.688;2024-02-26T02:43:37;21.80;24.00
20610;DHT22;10463;52.378;9.688;2024-02-26T02:46:22;21.80;24.00
20610;DHT22;10463;52.378;9.688;2024-02-26T02:49:08;21.80;24.00
20610;DHT22;10463;52.378;9.688;2024-02-26T02:51:53;21.80;24.00
20610;DHT22;10463;52.378;9.688;2024-02-26T02:54:40;21.80;24.00
20610;DHT22;10463;52.378;9.688;2024-02-26T02:57:26;21.80;24.00
20610;DHT22;10463;52.378;9.688;2024-02-26T03:00:12;21.80;24.00
20610;DHT22;10463;52.378;9.688;2024-02-26T03:02:57;21.80;24.00
20610;DHT22;10463;52.378;9.688;2024-02-26T03:05:41;21.80;24.00
20610;DHT22;10463;52.378;9.688;2024-02-26T03:08:26;21.80;24.00
20610;DHT22;10463;52.378;9.688;2024-02-26T03:11:14;21.80;24.00
20610;DHT22;10463;52.378;9.688;2024-02-26T03:14:00;21.80;24.00
20610;DHT22;10463;52.378;9.688;2024-02-26T03:16:44;21.80;24.00
20610;DHT22;10463;52.378;9.688;2024-02-26T03:19:29;21.80;24.00
20610;DHT22;10463;52.378;9.688;2024-02-26T03:22:14;21.80;24.00
20610;DHT22;10463;52.378;9.688;2024-02-26T03:24:58;21.80;24.00
20610;DHT22;10463;52.378;9.688;2024-02-26T03:27:44;21.70;23.90
20610;DHT22;10463;52.378;9.688;2024-02-26T03:30:28;21.70;23.90
20610;DHT22;10463;52.378;9.688;2024-02-26T03:33:13;21.70;23.90
20610;DHT22;10463;52.378;9.688;2024-02-26T03:35:58;21.70;23.90
20610;DHT22;10463;52.378;9.688;2024-02-26T03:38:42;21.70;23.90
20610;DHT22;10463;52.378;9.688;2024-02-26T03:41:27;21.70;23.90
20610;DHT22;10463;52.378;9.688;2024-02-26T03:44:13;21.70;23.90
20610;DHT22;10463;52.378;9.688;2024-02-26T03:46:58;21.70;23.90
20610;DHT22;10463;52.378;9.688;2024-02-26T03:49:42;21.70;24.00
20610;DHT22;10463;52.378;9.688;2024-02-26T03:52:27;21.70;23.90
20610;DHT22;10463;52.378;9.688;2024-02-26T03:55:11;21.70;24.00
20610;DHT22;10463;52.378;9.688;2024-02-26T03:57:56;21.70;23.90
20610;DHT22;10463;52.378;9.688;2024-02-26T04:00:42;21.70;24.00
20610;DHT22;10463;52.378;9.688;2024-02-26T04:03:27;21.70;23.90
20610;DHT22;10463;52.378;9.688;2024-02-26T04:06:12;21.70;24.00
20610;DHT22;10463;52.378;9.688;2024-02-26T04:08:59;21.70;24.00
20610;DHT22;10463;52.378;9.688;2024-02-26T04:11:43;21.70;24.00
20610;DHT22;10463;52.378;9.688;2024-02-26T04:14:28;21.70;23.90
20610;DHT22;10463;52.378;9.688;2024-02-26T04:17:14;21.70;24.00
20610;DHT22;10463;52.378;9.688;2024-02-26T04:19:58;21.60;23.90
20610;DHT22;10463;52.378;9.688;2024-02-26T04:22:43;21.70;24.00
20610;DHT22;10463;52.378;9.688;2024-02-26T04:25:28;21.70;24.50
20610;DHT22;10463;52.378;9.688;2024-02-26T04:28:13;21.70;24.00
20610;DHT22;10463;52.378;9.688;2024-02-26T04:30:57;21.70;24.00
20610;DHT22;10463;52.378;9.688;2024-02-26T04:33:43;21.60;23.90
20610;DHT22;10463;52.378;9.688;2024-02-26T04:36:28;21.70;24.00
20610;DHT22;10463;52.378;9.688;2024-02-26T04:39:12;21.60;23.90
20610;DHT22;10463;52.378;9.688;2024-02-26T04:41:57;21.60;23.90
20610;DHT22;10463;52.378;9.688;2024-02-26T04:44:41;21.60;23.90
20610;DHT22;10463;52.378;9.688;2024-02-26T04:47:26;21.60;23.90
20610;DHT22;10463;52.378;9.688;2024-02-26T04:50:12;21.60;23.90
20610;DHT22;10463;52.378;9.688;2024-02-26T04:52:57;21.60;23.90
20610;DHT22;10463;52.378;9.688;2024-02-26T04:55:41;21.60;23.90
20610;DHT22;10463;52.378;9.688;2024-02-26T04:58:26;21.60;23.90
20610;DHT22;10463;52.378;9.688;2024-02-26T05:01:10;21.60;23.90
20610;DHT22;10463;52.378;9.688;2024-02-26T05:03:55;21.60;24.00
20610;DHT22;10463;52.378;9.688;2024-02-26T05:06:41;21.60;23.90
20610;DHT22;10463;52.378;9.688;2024-02-26T05:09:26;21.60;23.90
20610;DHT22;10463;52.378;9.688;2024-02-26T05:12:10;21.60;23.90
20610;DHT22;10463;52.378;9.688;2024-02-26T05:14:55;21.60;23.90
20610;DHT22;10463;52.378;9.688;2024-02-26T05:17:39;21.60;23.90
20610;DHT22;10463;52.378;9.688;2024-02-26T05:20:24;21.60;23.90
20610;DHT22;10463;52.378;9.688;2024-02-26T05:23:10;21.60;23.90
20610;DHT22;10463;52.378;9.688;2024-02-26T05:25:55;21.60;23.90
20610;DHT22;10463;52.378;9.688;2024-02-26T05:28:39;21.60;23.90
20610;DHT22;10463;52.378;9.688;2024-02-26T05:31:24;21.60;23.90
20610;DHT22;10463;52.378;9.688;2024-02-26T05:34:09;21.60;23.90
20610;DHT22;10463;52.378;9.688;2024-02-26T05:36:53;21.60;23.90
20610;DHT22;10463;52.378;9.688;2024-02-26T05:39:39;21.60;23.90
20610;DHT22;10463;52.378;9.688;2024-02-26T05:42:24;21.60;24.00
20610;DHT22;10463;52.378;9.688;2024-02-26T05:45:09;21.60;23.90
20610;DHT22;10463;52.378;9.688;2024-02-26T05:47:53;21.50;23.90
20610;DHT22;10463;52.378;9.688;2024-02-26T05:50:38;21.50;23.90
20610;DHT22;10463;52.378;9.688;2024-02-26T05:53:23;21.60;23.90
20610;DHT22;10463;52.378;9.688;2024-02-26T05:56:09;21.60;23.90
20610;DHT22;10463;52.378;9.688;2024-02-26T05:58:53;21.60;23.90
20610;DHT22;10463;52.378;9.688;2024-02-26T06:01:38;21.60;23.90
20610;DHT22;10463;52.378;9.688;2024-02-26T06:04:23;21.50;23.90
20610;DHT22;10463;52.378;9.688;2024-02-26T06:07:07;21.50;23.90
20610;DHT22;10463;52.378;9.688;2024-02-26T06:09:52;21.50;23.90
20610;DHT22;10463;52.378;9.688;2024-02-26T06:12:38;21.50;23.80
20610;DHT22;10463;52.378;9.688;2024-02-26T06:15:23;21.50;23.90
20610;DHT22;10463;52.378;9.688;2024-02-26T06:18:07;21.50;23.90
20610;DHT22;10463;52.378;9.688;2024-02-26T06:20:52;21.50;23.90
20610;DHT22;10463;52.378;9.688;2024-02-26T06:23:37;21.50;23.90
20610;DHT22;10463;52.378;9.688;2024-02-26T06:26:22;21.50;23.90
20610;DHT22;10463;52.378;9.688;2024-02-26T06:29:08;21.50;23.90
20610;DHT22;10463;52.378;9.688;2024-02-26T06:31:52;21.50;23.90
20610;DHT22;10463;52.378;9.688;2024-02-26T06:34:37;21.50;23.90
20610;DHT22;10463;52.378;9.688;2024-02-26T06:37:23;21.50;23.90
20610;DHT22;10463;52.378;9.688;2024-02-26T06:40:08;21.50;23.90
20610;DHT22;10463;52.378;9.688;2024-02-26T06:42:53;21.50;23.90
20610;DHT22;10463;52.378;9.688;2024-02-26T06:45:39;21.50;23.90
20610;DHT22;10463;52.378;9.688;2024-02-26T06:48:24;21.50;23.90
20610;DHT22;10463;52.378;9.688;2024-02-26T06:51:09;21.50;23.90
20610;DHT22;10463;52.378;9.688;2024-02-26T06:53:53;21.50;23.90
20610;DHT22;10463;52.378;9.688;2024-02-26T06:56:38;21.50;23.90
20610;DHT22;10463;52.378;9.688;2024-02-26T06:59:22;21.50;23.90
20610;DHT22;10463;52.378;9.688;2024-02-26T07:02:09;21.50;23.90
20610;DHT22;10463;52.378;9.688;2024-02-26T07:04:54;21.40;23.80
20610;DHT22;10463;52.378;9.688;2024-02-26T07:07:40;21.50;23.90
20610;DHT22;10463;52.378;9.688;2024-02-26T07:10:25;21.50;23.90
20610;DHT22;10463;52.378;9.688;2024-02-26T07:13:09;21.40;23.80
20610;DHT22;10463;52.378;9.688;2024-02-26T07:15:54;21.50;23.90
20610;DHT22;10463;52.378;9.688;2024-02-26T07:18:40;21.40;23.90
20610;DHT22;10463;52.378;9.688;2024-02-26T07:21:25;21.40;23.90
20610;DHT22;10463;52.378;9.688;2024-02-26T07:24:09;21.40;23.80
20610;DHT22;10463;52.378;9.688;2024-02-26T07:26:54;21.40;23.90
20610;DHT22;10463;52.378;9.688;2024-02-26T07:29:41;21.40;23.90
20610;DHT22;10463;52.378;9.688;2024-02-26T07:32:26;21.40;23.80
20610;DHT22;10463;52.378;9.688;2024-02-26T07:35:12;21.40;23.90
20610;DHT22;10463;52.378;9.688;2024-02-26T07:37:56;21.40;23.90
20610;DHT22;10463;52.378;9.688;2024-02-26T07:40:41;21.40;23.90
20610;DHT22;10463;52.378;9.688;2024-02-26T07:43:25;21.40;23.90
20610;DHT22;10463;52.378;9.688;2024-02-26T07:46:11;21.40;23.90
20610;DHT22;10463;52.378;9.688;2024-02-26T07:48:56;21.40;23.90
20610;DHT22;10463;52.378;9.688;2024-02-26T07:51:42;21.40;23.90
20610;DHT22;10463;52.378;9.688;2024-02-26T07:54:27;21.40;23.90
20610;DHT22;10463;52.378;9.688;2024-02-26T07:57:11;21.40;23.90
20610;DHT22;10463;52.378;9.688;2024-02-26T07:59:56;21.40;23.90
20610;DHT22;10463;52.378;9.688;2024-02-26T08:02:41;21.40;23.90
20610;DHT22;10463;52.378;9.688;2024-02-26T08:05:26;21.40;23.90
20610;DHT22;10463;52.378;9.688;2024-02-26T08:08:12;21.40;23.90
20610;DHT22;10463;52.378;9.688;2024-02-26T08:10:57;21.40;23.90
20610;DHT22;10463;52.378;9.688;2024-02-26T08:13:41;21.40;23.90
20610;DHT22;10463;52.378;9.688;2024-02-26T08:16:26;21.40;23.90
20610;DHT22;10463;52.378;9.688;2024-02-26T08:19:11;21.40;23.90
20610;DHT22;10463;52.378;9.688;2024-02-26T08:21:58;21.40;23.90
20610;DHT22;10463;52.378;9.688;2024-02-26T08:24:44;21.40;23.90
20610;DHT22;10463;52.378;9.688;2024-02-26T08:27:29;21.40;23.90
20610;DHT22;10463;52.378;9.688;2024-02-26T08:30:15;21.40;23.90
20610;DHT22;10463;52.378;9.688;2024-02-26T08:33:01;21.40;23.90
20610;DHT22;10463;52.378;9.688;2024-02-26T08:35:45;21.40;23.90
20610;DHT22;10463;52.378;9.688;2024-02-26T08:38:30;21.40;23.90
20610;DHT22;10463;52.378;9.688;2024-02-26T08:41:16;21.40;23.90
20610;DHT22;10463;52.378;9.688;2024-02-26T08:44:01;21.40;23.90
20610;DHT22;10463;52.378;9.688;2024-02-26T08:46:45;21.40;23.90
20610;DHT22;10463;52.378;9.688;2024-02-26T08:49:30;21.40;23.90
20610;DHT22;10463;52.378;9.688;2024-02-26T08:52:16;21.40;23.90
20610;DHT22;10463;52.378;9.688;2024-02-26T08:55:01;21.40;23.90
20610;DHT22;10463;52.378;9.688;2024-02-26T08:57:47;21.40;23.90
20610;DHT22;10463;52.378;9.688;2024-02-26T09:00:32;21.40;23.90
20610;DHT22;10463;52.378;9.688;2024-02-26T09:03:17;21.40;23.90
20610;DHT22;10463;52.378;9.688;2024-02-26T09:06:02;21.40;23.90
20610;DHT22;10463;52.378;9.688;2024-02-26T09:08:46;21.40;23.90
20610;DHT22;10463;52.378;9.688;2024-02-26T09:11:31;21.40;23.90
20610;DHT22;10463;52.378;9.688;2024-02-26T09:14:17;21.40;23.90
20610;DHT22;10463;52.378;9.688;2024-02-26T09:17:02;21.40;23.90
20610;DHT22;10463;52.378;9.688;2024-02-26T09:19:47;21.50;24.00
20610;DHT22;10463;52.378;9.688;2024-02-26T09:22:31;21.40;23.90
20610;DHT22;10463;52.378;9.688;2024-02-26T09:25:16;21.40;23.90
20610;DHT22;10463;52.378;9.688;2024-02-26T09:28:01;21.50;23.90
20610;DHT22;10463;52.378;9.688;2024-02-26T09:30:47;21.50;23.90
20610;DHT22;10463;52.378;9.688;2024-02-26T09:33:33;21.50;23.90
20610;DHT22;10463;52.378;9.688;2024-02-26T09:36:18;21.50;23.90
20610;DHT22;10463;52.378;9.688;2024-02-26T09:39:02;21.50;23.90
20610;DHT22;10463;52.378;9.688;2024-02-26T09:41:47;21.50;23.90
20610;DHT22;10463;52.378;9.688;2024-02-26T09:44:36;21.50;23.80
20610;DHT22;10463;52.378;9.688;2024-02-26T09:47:26;21.50;23.80
20610;DHT22;10463;52.378;9.688;2024-02-26T09:50:13;21.50;23.90
20610;DHT22;10463;52.378;9.688;2024-02-26T09:52:59;21.50;23.80
20610;DHT22;10463;52.378;9.688;2024-02-26T09:55:47;21.50;23.80
20610;DHT22;10463;52.378;9.688;2024-02-26T09:58:32;21.50;23.80
20610;DHT22;10463;52.378;9.688;2024-02-26T10:01:18;21.50;23.80
20610;DHT22;10463;52.378;9.688;2024-02-26T10:04:06;21.50;23.80
20610;DHT22;10463;52.378;9.688;2024-02-26T10:06:53;21.50;23.80
20610;DHT22;10463;52.378;9.688;2024-02-26T10:09:39;21.50;23.80
20610;DHT22;10463;52.378;9.688;2024-02-26T10:12:24;21.50;23.80
20610;DHT22;10463;52.378;9.688;2024-02-26T10:15:11;21.50;23.80
20610;DHT22;10463;52.378;9.688;2024-02-26T10:17:56;21.50;23.80
20610;DHT22;10463;52.378;9.688;2024-02-26T10:20:42;21.50;23.80
20610;DHT22;10463;52.378;9.688;2024-02-26T10:23:26;21.50;23.80
20610;DHT22;10463;52.378;9.688;2024-02-26T10:26:12;21.50;23.80
20610;DHT22;10463;52.378;9.688;2024-02-26T10:29:00;21.50;23.80
20610;DHT22;10463;52.378;9.688;2024-02-26T10:31:46;21.50;23.80
20610;DHT22;10463;52.378;9.688;2024-02-26T10:34:31;21.50;23.80
20610;DHT22;10463;52.378;9.688;2024-02-26T10:37:17;21.50;23.80
20610;DHT22;10463;52.378;9.688;2024-02-26T10:40:02;21.50;23.80
20610;DHT22;10463;52.378;9.688;2024-02-26T10:42:47;21.50;23.80
20610;DHT22;10463;52.378;9.688;2024-02-26T10:45:32;21.50;23.80
20610;DHT22;10463;52.378;9.688;2024-02-26T10:48:17;21.50;23.80
20610;DHT22;10463;52.378;9.688;2024-02-26T10:51:03;21.50;23.80
20610;DHT22;10463;52.378;9.688;2024-02-26T10:53:51;21.50;23.80
20610;DHT22;10463;52.378;9.688;2024-02-26T10:56:42;21.50;23.80
20610;DHT22;10463;52.378;9.688;2024-02-26T10:59:28;21.50;23.80
20610;DHT22;10463;52.378;9.688;2024-02-26T11:02:14;21.50;23.70
20610;DHT22;10463;52.378;9.688;2024-02-26T11:05:00;21.60;23.80
20610;DHT22;10463;52.378;9.688;2024-02-26T11:07:47;21.50;23.70
20610;DHT22;10463;52.378;9.688;2024-02-26T11:10:33;21.50;23.80
20610;DHT22;10463;52.378;9.688;2024-02-26T11:13:19;21.60;23.80
20610;DHT22;10463;52.378;9.688;2024-02-26T11:16:04;21.50;23.80
20610;DHT22;10463;52.378;9.688;2024-02-26T11:18:52;21.60;23.80
20610;DHT22;10463;52.378;9.688;2024-02-26T11:21:39;21.60;23.80
20610;DHT22;10463;52.378;9.688;2024-02-26T11:24:28;21.60;23.80
20610;DHT22;10463;52.378;9.688;2024-02-26T11:27:16;21.60;23.80
20610;DHT22;10463;52.378;9.688;2024-02-26T11:30:03;21.50;23.80
20610;DHT22;10463;52.378;9.688;2024-02-26T11:32:50;21.60;23.80
20610;DHT22;10463;52.378;9.688;2024-02-26T11:35:36;21.50;23.80
20610;DHT22;10463;52.378;9.688;2024-02-26T11:38:24;21.60;23.80
20610;DHT22;10463;52.378;9.688;2024-02-26T11:41:10;21.60;23.80
20610;DHT22;10463;52.378;9.688;2024-02-26T11:44:01;21.60;23.80
20610;DHT22;10463;52.378;9.688;2024-02-26T11:46:46;21.60;23.80
20610;DHT22;10463;52.378;9.688;2024-02-26T11:49:32;21.60;23.80
20610;DHT22;10463;52.378;9.688;2024-02-26T11:52:17;21.60;23.80
20610;DHT22;10463;52.378;9.688;2024-02-26T11:55:02;21.60;23.80
20610;DHT22;10463;52.378;9.688;2024-02-26T11:57:47;21.60;23.80
20610;DHT22;10463;52.378;9.688;2024-02-26T12:00:33;21.60;23.80
20610;DHT22;10463;52.378;9.688;2024-02-26T12:03:19;21.60;23.80
20610;DHT22;10463;52.378;9.688;2024-02-26T12:06:04;21.60;23.80
20610;DHT22;10463;52.378;9.688;2024-02-26T12:08:50;21.60;23.80
20610;DHT22;10463;52.378;9.688;2024-02-26T12:11:37;21.60;23.80
20610;DHT22;10463;52.378;9.688;2024-02-26T12:14:25;21.60;23.80
20610;DHT22;10463;52.378;9.688;2024-02-26T12:17:21;21.60;23.80
20610;DHT22;10463;52.378;9.688;2024-02-26T12:20:09;21.60;23.80
20610;DHT22;10463;52.378;9.688;2024-02-26T12:22:55;21.60;23.70
20610;DHT22;10463;52.378;9.688;2024-02-26T12:25:40;21.60;23.80
20610;DHT22;10463;52.378;9.688;2024-02-26T12:28:28;21.60;23.70
20610;DHT22;10463;52.378;9.688;2024-02-26T12:31:13;21.60;23.70
20610;DHT22;10463;52.378;9.688;2024-02-26T12:34:00;21.60;23.70
20610;DHT22;10463;52.378;9.688;2024-02-26T12:36:45;21.60;23.70
20610;DHT22;10463;52.378;9.688;2024-02-26T12:39:30;21.60;23.70
20610;DHT22;10463;52.378;9.688;2024-02-26T12:42:16;21.60;23.70
20610;DHT22;10463;52.378;9.688;2024-02-26T12:45:00;21.60;23.70
20610;DHT22;10463;52.378;9.688;2024-02-26T12:47:45;21.70;23.70
20610;DHT22;10463;52.378;9.688;2024-02-26T12:50:32;21.70;23.80
20610;DHT22;10463;52.378;9.688;2024-02-26T12:53:16;21.70;23.70
20610;DHT22;10463;52.378;9.688;2024-02-26T12:56:02;21.70;23.70
20610;DHT22;10463;52.378;9.688;2024-02-26T12:58:48;21.70;23.70
20610;DHT22;10463;52.378;9.688;2024-02-26T13:01:34;21.70;23.70
20610;DHT22;10463;52.378;9.688;2024-02-26T13:04:19;21.70;23.70
20610;DHT22;10463;52.378;9.688;2024-02-26T13:07:05;21.70;23.70
20610;DHT22;10463;52.378;9.688;2024-02-26T13:09:51;21.70;23.70
20610;DHT22;10463;52.378;9.688;2024-02-26T13:12:36;21.70;23.70
20610;DHT22;10463;52.378;9.688;2024-02-26T13:15:22;21.70;23.70
20610;DHT22;10463;52.378;9.688;2024-02-26T13:18:09;21.70;23.70
20610;DHT22;10463;52.378;9.688;2024-02-26T13:20:54;21.70;23.70
20610;DHT22;10463;52.378;9.688;2024-02-26T13:23:42;21.70;23.70
20610;DHT22;10463;52.378;9.688;2024-02-26T13:26:27;21.70;23.70
20610;DHT22;10463;52.378;9.688;2024-02-26T13:29:17;21.70;24.30
20610;DHT22;10463;52.378;9.688;2024-02-26T13:32:03;21.70;23.70
20610;DHT22;10463;52.378;9.688;2024-02-26T13:34:48;21.70;23.70
20610;DHT22;10463;52.378;9.688;2024-02-26T13:37:33;21.70;23.70
20610;DHT22;10463;52.378;9.688;2024-02-26T13:40:18;21.70;23.70
20610;DHT22;10463;52.378;9.688;2024-02-26T13:43:05;21.70;23.70
20610;DHT22;10463;52.378;9.688;2024-02-26T13:45:50;21.70;23.70
20610;DHT22;10463;52.378;9.688;2024-02-26T13:48:35;21.80;23.80
20610;DHT22;10463;52.378;9.688;2024-02-26T13:51:19;21.70;23.70
20610;DHT22;10463;52.378;9.688;2024-02-26T13:54:04;21.80;23.80
20610;DHT22;10463;52.378;9.688;2024-02-26T13:56:50;21.70;23.80
20610;DHT22;10463;52.378;9.688;2024-02-26T13:59:36;21.80;23.90
20610;DHT22;10463;52.378;9.688;2024-02-26T14:02:21;21.80;23.90
20610;DHT22;10463;52.378;9.688;2024-02-26T14:05:06;21.80;24.00
20610;DHT22;10463;52.378;9.688;2024-02-26T14:07:52;21.80;24.00
20610;DHT22;10463;52.378;9.688;2024-02-26T14:10:37;21.80;24.00
20610;DHT22;10463;52.378;9.688;2024-02-26T14:13:23;21.80;24.00
20610;DHT22;10463;52.378;9.688;2024-02-26T14:16:08;21.80;24.00
20610;DHT22;10463;52.378;9.688;2024-02-26T14:18:55;21.80;24.00
20610;DHT22;10463;52.378;9.688;2024-02-26T14:21:39;21.80;24.00
20610;DHT22;10463;52.378;9.688;2024-02-26T14:24:24;21.80;24.00
20610;DHT22;10463;52.378;9.688;2024-02-26T14:27:11;21.90;24.00
20610;DHT22;10463;52.378;9.688;2024-02-26T14:30:00;21.90;24.00
20610;DHT22;10463;52.378;9.688;2024-02-26T14:32:45;21.90;24.00
20610;DHT22;10463;52.378;9.688;2024-02-26T14:35:30;21.90;24.00
20610;DHT22;10463;52.378;9.688;2024-02-26T14:38:14;21.90;24.00
20610;DHT22;10463;52.378;9.688;2024-02-26T14:40:59;21.90;24.00
20610;DHT22;10463;52.378;9.688;2024-02-26T14:43:44;21.90;24.10
20610;DHT22;10463;52.378;9.688;2024-02-26T14:46:30;21.90;24.00
20610;DHT22;10463;52.378;9.688;2024-02-26T14:49:14;22.00;24.10
20610;DHT22;10463;52.378;9.688;2024-02-26T14:52:00;22.00;24.10
20610;DHT22;10463;52.378;9.688;2024-02-26T14:54:44;22.00;24.10
20610;DHT22;10463;52.378;9.688;2024-02-26T14:57:29;22.00;24.00
20610;DHT22;10463;52.378;9.688;2024-02-26T15:00:14;22.00;24.00
20610;DHT22;10463;52.378;9.688;2024-02-26T15:03:00;22.00;23.90
20610;DHT22;10463;52.378;9.688;2024-02-26T15:05:45;22.00;23.90
20610;DHT22;10463;52.378;9.688;2024-02-26T15:08:30;22.00;23.90
20610;DHT22;10463;52.378;9.688;2024-02-26T15:11:14;22.00;23.90
20610;DHT22;10463;52.378;9.688;2024-02-26T15:13:59;22.00;23.80
20610;DHT22;10463;52.378;9.688;2024-02-26T15:16:44;22.00;23.80
20610;DHT22;10463;52.378;9.688;2024-02-26T15:19:30;22.00;23.80
20610;DHT22;10463;52.378;9.688;2024-02-26T15:22:14;22.00;23.80
20610;DHT22;10463;52.378;9.688;2024-02-26T15:24:59;22.00;23.70
20610;DHT22;10463;52.378;9.688;2024-02-26T15:27:44;22.00;23.70
20610;DHT22;10463;52.378;9.688;2024-02-26T15:30:28;22.00;23.70
20610;DHT22;10463;52.378;9.688;2024-02-26T15:33:14;22.00;23.70
20610;DHT22;10463;52.378;9.688;2024-02-26T15:35:59;22.00;23.70
20610;DHT22;10463;52.378;9.688;2024-02-26T15:38:44;22.00;23.70
20610;DHT22;10463;52.378;9.688;2024-02-26T15:41:29;22.00;23.70
20610;DHT22;10463;52.378;9.688;2024-02-26T15:44:14;22.00;23.70
20610;DHT22;10463;52.378;9.688;2024-02-26T15:46:58;22.00;23.70
20610;DHT22;10463;52.378;9.688;2024-02-26T15:49:44;22.00;23.70
20610;DHT22;10463;52.378;9.688;2024-02-26T15:52:30;22.00;23.70
20610;DHT22;10463;52.378;9.688;2024-02-26T15:55:15;22.00;23.70
20610;DHT22;10463;52.378;9.688;2024-02-26T15:58:00;22.00;23.70
20610;DHT22;10463;52.378;9.688;2024-02-26T16:00:44;22.00;23.70
20610;DHT22;10463;52.378;9.688;2024-02-26T16:03:29;21.90;23.60
20610;DHT22;10463;52.378;9.688;2024-02-26T16:06:29;21.90;23.60
20610;DHT22;10463;52.378;9.688;2024-02-26T16:09:17;21.90;23.60
20610;DHT22;10463;52.378;9.688;2024-02-26T16:12:11;22.00;23.70
20610;DHT22;10463;52.378;9.688;2024-02-26T16:14:56;21.90;23.60
20610;DHT22;10463;52.378;9.688;2024-02-26T16:17:43;21.90;23.60
20610;DHT22;10463;52.378;9.688;2024-02-26T16:20:31;21.90;23.60
20610;DHT22;10463;52.378;9.688;2024-02-26T16:23:17;21.90;23.50
20610;DHT22;10463;52.378;9.688;2024-02-26T16:26:03;21.90;23.60
20610;DHT22;10463;52.378;9.688;2024-02-26T16:28:49;21.90;23.60
20610;DHT22;10463;52.378;9.688;2024-02-26T16:31:33;21.90;23.50
20610;DHT22;10463;52.378;9.688;2024-02-26T16:34:18;21.90;23.50
20610;DHT22;10463;52.378;9.688;2024-02-26T16:37:09;21.90;23.60
20610;DHT22;10463;52.378;9.688;2024-02-26T16:39:58;21.90;23.60
20610;DHT22;10463;52.378;9.688;2024-02-26T16:42:44;21.90;23.60
20610;DHT22;10463;52.378;9.688;2024-02-26T16:45:29;21.90;23.60
20610;DHT22;10463;52.378;9.688;2024-02-26T16:48:13;21.90;23.60
20610;DHT22;10463;52.378;9.688;2024-02-26T16:50:58;21.90;23.60
20610;DHT22;10463;52.378;9.688;2024-02-26T16:53:42;21.90;23.60
20610;DHT22;10463;52.378;9.688;2024-02-26T16:56:27;21.90;23.60
20610;DHT22;10463;52.378;9.688;2024-02-26T16:59:14;21.90;23.60
20610;DHT22;10463;52.378;9.688;2024-02-26T17:01:58;21.90;23.60
20610;DHT22;10463;52.378;9.688;2024-02-26T17:04:44;21.90;23.60
20610;DHT22;10463;52.378;9.688;2024-02-26T17:07:28;21.90;23.60
20610;DHT22;10463;52.378;9.688;2024-02-26T17:10:14;21.90;23.70
20610;DHT22;10463;52.378;9.688;2024-02-26T17:12:59;21.90;23.70
20610;DHT22;10463;52.378;9.688;2024-02-26T17:15:45;21.90;23.80
20610;DHT22;10463;52.378;9.688;2024-02-26T17:18:30;21.90;23.70
20610;DHT22;10463;52.378;9.688;2024-02-26T17:21:16;21.90;23.60
20610;DHT22;10463;52.378;9.688;2024-02-26T17:24:01;21.90;23.70